createdAt,value
2022-08-17T00:00:42.987Z,25.53
2022-08-17T00:03:06.090Z,25.51
2022-08-17T00:05:39.055Z,25.65
2022-08-17T00:08:07.247Z,25.59
2022-08-17T00:10:36.264Z,25.38
2022-08-17T00:13:07.405Z,25.50
2022-08-17T00:15:35.669Z,25.47
2022-08-17T00:18:04.182Z,25.45
2022-08-17T00:20:53.951Z,25.12
2022-08-17T00:23:22.407Z,25.38
2022-08-17T00:25:51.385Z,25.19
2022-08-17T00:28:22.229Z,25.17
2022-08-17T00:30:53.584Z,25.25
2022-08-17T00:33:24.057Z,25.25
2022-08-17T00:35:53.860Z,25.31
2022-08-17T00:38:22.564Z,25.17
2022-08-17T00:40:55.796Z,25.20
2022-08-17T00:43:31.788Z,25.22
2022-08-17T00:46:01.386Z,25.27
2022-08-17T00:48:30.843Z,25.21
2022-08-17T00:51:17.735Z,25.32
2022-08-17T00:53:49.548Z,25.27
2022-08-17T00:56:22.055Z,25.37
2022-08-17T00:58:50.784Z,25.36
2022-08-17T01:01:21.467Z,25.27
2022-08-17T01:03:51.984Z,25.15
2022-08-17T01:06:22.529Z,25.23
2022-08-17T01:08:52.207Z,25.24
2022-08-17T01:11:26.230Z,25.19
2022-08-17T01:13:54.707Z,25.13
2022-08-17T01:16:25.606Z,24.92
2022-08-17T01:18:56.949Z,25.04
2022-08-17T01:21:31.946Z,25.07
2022-08-17T01:24:01.522Z,25.04
2022-08-17T01:26:31.665Z,25.08
2022-08-17T01:29:00.106Z,24.98
2022-08-17T01:31:33.396Z,25.03
2022-08-17T01:34:03.447Z,24.74
2022-08-17T01:36:32.472Z,24.84
2022-08-17T01:39:02.124Z,24.75
2022-08-17T01:41:30.503Z,24.97
2022-08-17T01:49:01.500Z,24.74
2022-08-17T01:51:32.809Z,24.75
2022-08-17T01:54:05.543Z,24.60
2022-08-17T01:56:35.587Z,24.64
2022-08-17T01:59:04.133Z,24.91
2022-08-17T02:01:33.969Z,24.67
2022-08-17T02:04:03.405Z,24.63
2022-08-17T02:06:45.337Z,24.60
2022-08-17T02:09:25.713Z,24.68
2022-08-17T02:11:54.606Z,24.59
2022-08-17T02:14:23.229Z,24.54
2022-08-17T02:16:51.423Z,24.56
2022-08-17T02:19:22.003Z,24.67
2022-08-17T02:21:53.424Z,24.72
2022-08-17T02:24:58.499Z,24.64
2022-08-17T02:27:14.187Z,24.53
2022-08-17T02:29:42.379Z,24.26
2022-08-17T02:32:27.246Z,24.38
2022-08-17T02:34:57.270Z,24.51
2022-08-17T02:37:25.933Z,24.39
2022-08-17T02:39:57.135Z,24.30
2022-08-17T02:42:28.883Z,24.48
2022-08-17T02:44:57.001Z,24.45
2022-08-17T02:47:25.440Z,24.34
2022-08-17T02:49:54.477Z,24.20
2022-08-17T02:52:43.349Z,24.13
2022-08-17T02:55:17.911Z,24.09
2022-08-17T02:57:46.375Z,24.12
2022-08-17T03:00:17.824Z,24.28
2022-08-17T03:02:46.739Z,24.21
2022-08-17T03:05:17.493Z,24.22
2022-08-17T03:07:45.889Z,24.23
2022-08-17T03:10:16.607Z,24.11
2022-08-17T03:12:47.746Z,24.09
2022-08-17T03:15:18.753Z,23.94
2022-08-17T03:17:47.197Z,23.85
2022-08-17T03:20:16.167Z,24.02
2022-08-17T03:22:47.940Z,23.56
2022-08-17T03:25:25.016Z,23.82
2022-08-17T03:27:53.207Z,23.45
2022-08-17T03:30:22.597Z,23.45
2022-08-17T03:32:52.529Z,23.55
2022-08-17T03:35:23.817Z,23.43
2022-08-17T03:38:00.238Z,23.53
2022-08-17T03:40:36.954Z,23.74
2022-08-17T03:43:23.174Z,23.75
2022-08-17T03:46:27.076Z,23.80
2022-08-17T03:49:15.063Z,23.72
2022-08-17T03:52:01.067Z,23.76
2022-08-17T03:54:46.594Z,23.81
2022-08-17T03:57:16.422Z,23.60
2022-08-17T03:59:45.289Z,23.59
2022-08-17T04:02:17.507Z,23.63
2022-08-17T04:04:45.771Z,23.75
2022-08-17T04:07:14.046Z,23.75
2022-08-17T04:09:43.016Z,23.63
2022-08-17T04:12:11.267Z,23.55
2022-08-17T04:14:52.568Z,23.64
2022-08-17T04:17:23.721Z,23.72
2022-08-17T04:19:51.870Z,23.59
2022-08-17T04:22:30.482Z,23.79
2022-08-17T04:25:03.299Z,23.93
2022-08-17T04:27:31.964Z,23.80
2022-08-17T04:30:01.627Z,24.01
2022-08-17T04:33:03.605Z,23.72
2022-08-17T04:35:22.912Z,23.71
2022-08-17T04:37:52.273Z,23.78
2022-08-17T04:40:41.270Z,23.83
2022-08-17T04:43:11.454Z,23.76
2022-08-17T04:45:55.303Z,23.80
2022-08-17T04:48:29.954Z,23.74
2022-08-17T04:51:08.393Z,23.78
2022-08-17T04:53:37.122Z,23.81
2022-08-17T04:56:06.026Z,23.72
2022-08-17T04:58:34.499Z,23.80
2022-08-17T05:01:04.451Z,23.79
2022-08-17T05:03:32.799Z,24.11
2022-08-17T05:06:01.119Z,24.10
2022-08-17T05:08:29.521Z,23.93
2022-08-17T05:10:58.058Z,24.03
2022-08-17T05:13:29.937Z,23.99
2022-08-17T05:16:01.225Z,24.14
2022-08-17T05:18:31.372Z,24.20
2022-08-17T05:21:00.226Z,24.23
2022-08-17T05:23:37.830Z,24.24
2022-08-17T05:26:11.682Z,24.36
2022-08-17T05:28:54.318Z,24.40
2022-08-17T05:31:22.437Z,24.55
2022-08-17T05:33:52.483Z,24.68
2022-08-17T05:36:42.367Z,24.27
2022-08-17T05:39:15.604Z,24.38
2022-08-17T05:41:47.446Z,24.36
2022-08-17T05:44:15.658Z,24.33
2022-08-17T05:46:49.144Z,24.38
2022-08-17T05:49:20.729Z,24.50
2022-08-17T05:52:20.079Z,24.63
2022-08-17T05:55:09.245Z,24.84
2022-08-17T05:57:53.833Z,24.88
2022-08-17T06:00:30.842Z,24.92
2022-08-17T06:03:13.742Z,25.06
2022-08-17T06:05:56.267Z,25.23
2022-08-17T06:08:28.286Z,25.25
2022-08-17T06:11:04.305Z,25.21
2022-08-17T06:13:45.794Z,25.22
2022-08-17T06:16:33.611Z,25.47
2022-08-17T06:19:09.158Z,25.38
2022-08-17T06:21:43.948Z,25.37
2022-08-17T06:24:25.024Z,25.37
2022-08-17T06:26:56.338Z,25.47
2022-08-17T06:29:33.535Z,25.67
2022-08-17T06:32:02.553Z,25.61
2022-08-17T06:34:31.174Z,25.79
2022-08-17T06:37:09.245Z,25.91
2022-08-17T06:39:45.099Z,25.94
2022-08-17T06:43:00.895Z,26.03
2022-08-17T06:45:15.884Z,26.14
2022-08-17T06:47:47.587Z,26.15
2022-08-17T06:50:22.348Z,26.37
2022-08-17T06:53:00.349Z,26.17
2022-08-17T06:55:37.939Z,26.19
2022-08-17T06:58:16.260Z,26.21
2022-08-17T07:00:47.270Z,26.30
2022-08-17T07:03:21.937Z,26.41
2022-08-17T07:05:53.257Z,26.35
2022-08-17T07:08:35.272Z,26.31
2022-08-17T07:11:07.217Z,26.51
2022-08-17T07:13:49.285Z,26.53
2022-08-17T07:16:33.609Z,26.45
2022-08-17T07:19:07.420Z,26.50
2022-08-17T07:21:46.094Z,26.55
2022-08-17T07:24:33.237Z,26.53
2022-08-17T07:27:07.620Z,26.76
2022-08-17T07:29:40.273Z,26.74
2022-08-17T07:32:09.461Z,26.59
2022-08-17T07:35:10.777Z,26.71
2022-08-17T07:37:41.081Z,26.91
2022-08-17T07:40:33.549Z,27.14
2022-08-17T07:43:22.174Z,27.17
2022-08-17T07:46:12.598Z,26.99
2022-08-17T07:48:44.431Z,27.07
2022-08-17T07:51:18.625Z,27.15
2022-08-17T07:53:48.204Z,27.15
2022-08-17T07:56:37.917Z,27.33
2022-08-17T07:59:12.538Z,27.42
2022-08-17T08:02:01.261Z,27.38
2022-08-17T08:07:26.859Z,27.36
2022-08-17T08:10:04.092Z,27.51
2022-08-17T08:12:37.021Z,27.52
2022-08-17T08:15:11.482Z,27.57
2022-08-17T08:17:48.562Z,27.65
2022-08-17T08:20:50.864Z,27.59
2022-08-17T08:23:14.477Z,27.60
2022-08-17T08:25:52.211Z,27.74
2022-08-17T08:28:30.632Z,27.85
2022-08-17T08:31:06.732Z,27.86
2022-08-17T08:33:48.567Z,27.88
2022-08-17T08:36:56.848Z,27.98
2022-08-17T08:39:21.423Z,28.16
2022-08-17T08:41:58.985Z,28.24
2022-08-17T08:44:59.770Z,28.31
2022-08-17T08:47:39.790Z,28.32
2022-08-17T08:50:30.133Z,28.39
2022-08-17T08:53:16.244Z,28.43
2022-08-17T08:55:53.664Z,28.46
2022-08-17T08:58:31.616Z,28.63
2022-08-17T09:01:22.557Z,28.81
2022-08-17T09:04:26.186Z,28.91
2022-08-17T09:07:08.931Z,29.05
2022-08-17T09:09:44.274Z,29.17
2022-08-17T09:12:17.444Z,29.39
2022-08-17T09:14:59.570Z,29.47
2022-08-17T09:17:36.148Z,29.45
2022-08-17T09:20:11.379Z,29.58
2022-08-17T09:22:59.977Z,29.61
2022-08-17T09:25:31.216Z,29.62
2022-08-17T09:28:03.800Z,29.69
2022-08-17T09:30:41.189Z,29.89
2022-08-17T09:33:11.831Z,30.10
2022-08-17T09:35:44.672Z,30.15
2022-08-17T09:38:21.612Z,30.20
2022-08-17T09:40:56.882Z,30.38
2022-08-17T09:43:36.010Z,30.46
2022-08-17T09:46:09.611Z,30.59
2022-08-17T09:48:52.006Z,30.61
2022-08-17T09:51:25.050Z,30.65
2022-08-17T09:53:53.284Z,30.68
2022-08-17T09:56:36.111Z,30.54
2022-08-17T09:59:17.253Z,30.69
2022-08-17T10:01:50.647Z,30.81
2022-08-17T10:04:30.827Z,31.02
2022-08-17T10:07:06.135Z,31.18
2022-08-17T10:09:42.634Z,31.25
2022-08-17T10:12:20.596Z,31.15
2022-08-17T10:15:08.237Z,31.27
2022-08-17T10:17:46.148Z,31.41
2022-08-17T10:20:18.980Z,31.52
2022-08-17T10:23:09.110Z,31.57
2022-08-17T10:26:08.670Z,31.65
2022-08-17T10:28:41.048Z,31.81
2022-08-17T10:31:34.361Z,31.79
2022-08-17T10:34:19.350Z,31.57
2022-08-17T10:36:56.050Z,31.86
2022-08-17T10:39:32.137Z,32.10
2022-08-17T10:42:32.453Z,32.09
2022-08-17T10:45:05.404Z,32.27
2022-08-17T10:48:04.300Z,32.33
2022-08-17T10:51:00.967Z,32.44
2022-08-17T10:54:02.380Z,32.45
2022-08-17T10:56:50.515Z,32.53
2022-08-17T10:59:52.502Z,32.63
2022-08-17T11:02:31.659Z,32.52
2022-08-17T11:05:22.311Z,32.70
2022-08-17T11:08:05.461Z,32.75
2022-08-17T11:10:56.751Z,32.79
2022-08-17T11:13:36.057Z,32.90
2022-08-17T11:16:19.121Z,32.87
2022-08-17T11:19:13.530Z,32.92
2022-08-17T11:22:12.902Z,32.91
2022-08-17T11:24:48.496Z,33.01
2022-08-17T11:27:28.068Z,33.18
2022-08-17T11:30:02.165Z,33.30
2022-08-17T11:32:37.405Z,33.36
2022-08-17T11:35:22.258Z,33.63
2022-08-17T11:38:01.102Z,33.81
2022-08-17T11:40:41.228Z,33.88
2022-08-17T11:43:44.555Z,33.88
2022-08-17T11:46:21.703Z,34.12
2022-08-17T11:49:16.954Z,33.97
2022-08-17T11:52:13.024Z,33.86
2022-08-17T11:54:45.259Z,34.13
2022-08-17T11:58:01.828Z,34.10
2022-08-17T12:01:00.033Z,34.18
2022-08-17T12:03:57.987Z,34.36
2022-08-17T12:06:33.572Z,34.26
2022-08-17T12:09:08.092Z,34.22
2022-08-17T12:11:55.184Z,34.43
2022-08-17T12:15:05.798Z,34.33
2022-08-17T12:17:41.612Z,34.55
2022-08-17T12:20:15.233Z,34.74
2022-08-17T12:22:56.613Z,35.01
2022-08-17T12:25:30.483Z,35.25
2022-08-17T12:28:05.416Z,35.52
2022-08-17T12:30:38.855Z,35.35
2022-08-17T12:33:25.490Z,35.13
2022-08-17T12:35:59.724Z,35.19
2022-08-17T12:38:32.375Z,35.46
2022-08-17T12:41:23.593Z,35.49
2022-08-17T12:44:02.462Z,35.95
2022-08-17T12:46:35.908Z,36.23
2022-08-17T12:49:21.423Z,36.32
2022-08-17T12:51:50.769Z,36.19
2022-08-17T12:54:41.851Z,36.03
2022-08-17T12:57:15.790Z,36.10
2022-08-17T12:59:48.944Z,36.00
2022-08-17T13:02:29.491Z,36.18
2022-08-17T13:05:03.229Z,36.40
2022-08-17T13:07:37.135Z,36.33
2022-08-17T13:10:05.994Z,36.65
2022-08-17T13:12:36.509Z,36.38
2022-08-17T13:15:05.574Z,35.72
2022-08-17T13:17:37.185Z,36.09
2022-08-17T13:20:16.164Z,36.45
2022-08-17T13:22:45.411Z,36.82
2022-08-17T13:25:21.988Z,36.99
2022-08-17T13:27:52.215Z,37.33
2022-08-17T13:30:27.219Z,37.33
2022-08-17T13:32:58.736Z,37.09
2022-08-17T13:35:50.127Z,37.20
2022-08-17T13:38:45.697Z,37.50
2022-08-17T13:41:34.710Z,37.27
2022-08-17T13:44:05.673Z,37.25
2022-08-17T13:46:39.830Z,37.73
2022-08-17T13:49:12.920Z,36.41
2022-08-17T13:51:47.537Z,36.76
2022-08-17T13:54:28.749Z,37.28
2022-08-17T13:57:03.567Z,37.82
2022-08-17T13:59:54.172Z,38.00
2022-08-17T14:02:28.927Z,38.27
2022-08-17T14:05:02.185Z,38.36
2022-08-17T14:07:37.940Z,38.19
2022-08-17T14:10:11.419Z,37.85
2022-08-17T14:12:41.723Z,38.12
2022-08-17T14:15:13.082Z,38.28
2022-08-17T14:17:41.507Z,38.41
2022-08-17T14:20:12.273Z,38.29
2022-08-17T14:22:45.531Z,38.55
2022-08-17T14:25:15.658Z,38.79
2022-08-17T14:27:52.723Z,38.92
2022-08-17T14:30:28.857Z,38.68
2022-08-17T14:32:58.616Z,38.72
2022-08-17T14:35:28.005Z,38.74
2022-08-17T14:38:00.501Z,38.43
2022-08-17T14:40:30.150Z,37.86
2022-08-17T14:42:59.419Z,37.72
2022-08-17T14:45:32.522Z,37.40
2022-08-17T14:48:12.028Z,37.49
2022-08-17T14:50:43.083Z,37.45
2022-08-17T14:53:19.726Z,36.99
2022-08-17T14:55:51.885Z,37.25
2022-08-17T14:58:20.381Z,37.15
2022-08-17T15:00:51.323Z,37.21
2022-08-17T15:03:19.867Z,37.31
2022-08-17T15:05:48.758Z,37.35
2022-08-17T15:08:19.692Z,37.45
2022-08-17T15:10:50.019Z,37.06
2022-08-17T15:13:22.086Z,37.04
2022-08-17T15:15:51.131Z,36.98
2022-08-17T15:18:20.102Z,37.02
2022-08-17T15:20:49.275Z,36.80
2022-08-17T15:23:21.438Z,36.72
2022-08-17T15:25:50.649Z,36.57
2022-08-17T15:28:18.861Z,36.38
2022-08-17T15:30:48.417Z,35.91
2022-08-17T15:33:17.870Z,35.73
2022-08-17T15:35:46.128Z,35.44
2022-08-17T15:38:14.539Z,35.50
2022-08-17T15:40:46.067Z,35.51
2022-08-17T15:43:16.252Z,35.79
2022-08-17T15:45:44.820Z,35.87
2022-08-17T15:48:41.501Z,35.76
2022-08-17T15:51:11.521Z,35.39
2022-08-17T15:53:40.175Z,35.24
2022-08-17T15:56:09.885Z,34.91
2022-08-17T15:58:40.219Z,34.91
2022-08-17T16:01:14.939Z,35.80
2022-08-17T16:04:04.191Z,36.14
2022-08-17T16:06:35.247Z,37.06
2022-08-17T16:09:03.367Z,37.94
2022-08-17T16:11:32.937Z,38.53
2022-08-17T16:14:01.053Z,38.64
2022-08-17T16:16:31.318Z,38.68
2022-08-17T16:18:59.592Z,38.22
2022-08-17T16:21:31.124Z,38.04
2022-08-17T16:24:13.237Z,38.02
2022-08-17T16:26:45.060Z,37.59
2022-08-17T16:29:13.532Z,37.76
2022-08-17T16:31:43.357Z,37.95
2022-08-17T16:34:17.023Z,38.01
2022-08-17T16:36:54.869Z,38.01
2022-08-17T16:39:26.352Z,37.97
2022-08-17T16:41:56.517Z,37.51
2022-08-17T16:44:25.910Z,36.97
2022-08-17T16:46:54.358Z,36.54
2022-08-17T16:49:35.795Z,36.20
2022-08-17T16:52:10.323Z,35.82
2022-08-17T16:54:40.697Z,35.49
2022-08-17T16:57:10.524Z,35.24
2022-08-17T16:59:42.608Z,34.93
2022-08-17T17:02:16.375Z,34.63
2022-08-17T17:04:50.565Z,34.48
2022-08-17T17:07:33.915Z,34.21
2022-08-17T17:10:05.985Z,33.91
2022-08-17T17:13:02.871Z,33.77
2022-08-17T17:15:29.837Z,33.51
2022-08-17T17:18:06.780Z,33.43
2022-08-17T17:20:41.513Z,33.38
2022-08-17T17:23:14.771Z,33.27
2022-08-17T17:25:49.842Z,33.19
2022-08-17T17:28:24.983Z,33.13
2022-08-17T17:31:02.070Z,33.09
2022-08-17T17:33:36.210Z,32.93
2022-08-17T17:36:09.195Z,32.87
2022-08-17T17:38:43.108Z,32.79
2022-08-17T17:41:17.028Z,32.66
2022-08-17T17:43:49.389Z,32.57
2022-08-17T17:46:28.580Z,32.40
2022-08-17T17:48:57.302Z,32.35
2022-08-17T17:52:06.835Z,32.30
2022-08-17T17:54:28.464Z,32.17
2022-08-17T17:57:03.491Z,32.04
2022-08-17T17:59:43.899Z,31.97
2022-08-17T18:02:41.025Z,31.86
2022-08-17T18:05:17.359Z,31.80
2022-08-17T18:07:50.442Z,31.76
2022-08-17T18:10:30.214Z,31.70
2022-08-17T18:13:16.972Z,31.62
2022-08-17T18:15:51.186Z,31.46
2022-08-17T18:18:38.025Z,31.50
2022-08-17T18:21:15.605Z,31.42
2022-08-17T18:23:54.646Z,31.37
2022-08-17T18:26:46.879Z,31.23
2022-08-17T18:29:31.575Z,31.06
2022-08-17T18:32:18.316Z,31.01
2022-08-17T18:34:48.849Z,30.97
2022-08-17T18:37:32.407Z,30.86
2022-08-17T18:40:00.658Z,30.71
2022-08-17T18:42:30.253Z,30.75
2022-08-17T18:44:58.465Z,30.66
2022-08-17T18:47:29.631Z,30.58
2022-08-17T18:50:00.570Z,30.53
2022-08-17T18:52:31.875Z,30.51
2022-08-17T18:55:04.035Z,30.53
2022-08-17T18:57:35.447Z,30.43
2022-08-17T19:00:12.592Z,30.35
2022-08-17T19:02:54.463Z,30.25
2022-08-17T19:05:35.589Z,30.34
2022-08-17T19:08:20.384Z,30.33
2022-08-17T19:10:50.264Z,30.33
2022-08-17T19:13:23.852Z,30.36
2022-08-17T19:16:11.716Z,30.29
2022-08-17T19:18:48.588Z,30.29
2022-08-17T19:21:19.838Z,30.31
2022-08-17T19:23:54.249Z,30.27
2022-08-17T19:26:50.598Z,30.24
2022-08-17T19:29:16.877Z,30.00
2022-08-17T19:31:50.490Z,29.98
2022-08-17T19:34:33.332Z,29.94
2022-08-17T19:37:09.207Z,29.77
2022-08-17T19:39:42.407Z,29.69
2022-08-17T19:42:15.620Z,30.01
2022-08-17T19:44:52.948Z,29.94
2022-08-17T19:47:53.371Z,29.86
2022-08-17T19:50:38.516Z,29.97
2022-08-17T19:53:21.546Z,29.87
2022-08-17T19:55:55.305Z,29.85
2022-08-17T19:58:34.569Z,29.88
2022-08-17T20:01:03.177Z,29.89
2022-08-17T20:03:36.909Z,29.76
2022-08-17T20:06:13.005Z,29.83
2022-08-17T20:08:50.199Z,29.70
2022-08-17T20:11:22.898Z,29.62
2022-08-17T20:13:56.767Z,29.59
2022-08-17T20:16:24.972Z,29.53
2022-08-17T20:18:59.688Z,29.26
2022-08-17T20:21:37.324Z,29.23
2022-08-17T20:24:19.009Z,29.27
2022-08-17T20:26:58.746Z,29.10
2022-08-17T20:29:39.593Z,28.97
2022-08-17T20:32:30.563Z,28.91
2022-08-17T20:35:18.201Z,28.87
2022-08-17T20:37:55.417Z,28.75
2022-08-17T20:40:36.351Z,28.77
2022-08-17T20:43:58.945Z,28.67
2022-08-17T20:46:35.723Z,28.47
2022-08-17T20:49:17.149Z,28.65
2022-08-17T20:52:01.707Z,28.35
2022-08-17T20:54:46.630Z,28.51
2022-08-17T20:57:48.964Z,28.48
2022-08-17T21:00:42.691Z,28.45
2022-08-17T21:03:50.199Z,28.42
2022-08-17T21:06:22.657Z,28.42
2022-08-17T21:08:58.534Z,28.39
2022-08-17T21:12:04.392Z,28.30
2022-08-17T21:14:39.835Z,28.66
2022-08-17T21:17:34.320Z,28.83
2022-08-17T21:20:11.929Z,28.75
2022-08-17T21:22:52.555Z,28.69
2022-08-17T21:25:32.673Z,28.66
2022-08-17T21:28:08.617Z,28.41
2022-08-17T21:30:55.936Z,28.53
2022-08-17T21:33:29.348Z,28.43
2022-08-17T21:36:25.689Z,28.11
2022-08-17T21:39:02.097Z,28.14
2022-08-17T21:41:34.625Z,28.12
2022-08-17T21:44:07.949Z,28.09
2022-08-17T21:46:42.916Z,28.06
2022-08-17T21:49:17.842Z,27.99
2022-08-17T21:51:50.438Z,28.08
2022-08-17T21:54:28.833Z,28.04
2022-08-17T21:56:59.541Z,27.97
2022-08-17T21:59:32.173Z,27.86
2022-08-17T22:02:02.682Z,27.74
2022-08-17T22:04:32.422Z,27.81
2022-08-17T22:07:02.533Z,27.85
2022-08-17T22:09:32.830Z,27.69
2022-08-17T22:12:04.929Z,27.55
2022-08-17T22:14:52.667Z,27.59
2022-08-17T22:17:24.625Z,27.52
2022-08-17T22:19:54.371Z,27.64
2022-08-17T22:22:28.167Z,27.60
2022-08-17T22:24:57.992Z,27.76
2022-08-17T22:27:50.871Z,27.49
2022-08-17T22:30:36.579Z,27.52
2022-08-17T22:33:40.366Z,27.38
2022-08-17T22:36:14.811Z,27.47
2022-08-17T22:38:43.858Z,27.25
2022-08-17T22:41:23.806Z,27.37
2022-08-17T22:43:53.083Z,27.57
2022-08-17T22:46:23.925Z,27.39
2022-08-17T22:48:54.398Z,27.20
2022-08-17T22:51:25.280Z,27.28
2022-08-17T22:54:13.154Z,27.45
2022-08-17T22:57:06.298Z,27.35
2022-08-17T22:59:42.400Z,27.31
2022-08-17T23:02:15.213Z,27.34
2022-08-17T23:04:47.784Z,27.15
2022-08-17T23:07:17.480Z,27.14
2022-08-17T23:09:45.947Z,26.96
2022-08-17T23:12:18.022Z,27.03
2022-08-17T23:14:48.118Z,27.00
2022-08-17T23:17:18.162Z,26.85
2022-08-17T23:19:46.277Z,26.90
2022-08-17T23:22:14.388Z,26.91
2022-08-17T23:24:49.018Z,26.82
2022-08-17T23:27:17.594Z,26.88
2022-08-17T23:29:47.167Z,26.71
2022-08-17T23:32:17.619Z,27.08
2022-08-17T23:34:48.264Z,26.88
2022-08-17T23:37:16.895Z,26.79
2022-08-17T23:39:45.792Z,26.94
2022-08-17T23:42:24.397Z,27.00
2022-08-17T23:44:52.517Z,26.91
2022-08-17T23:47:22.223Z,27.12
2022-08-17T23:49:50.357Z,27.10
2022-08-17T23:52:23.351Z,26.89
2022-08-17T23:54:51.680Z,26.80
2022-08-17T23:57:33.450Z,26.97
